Time;durP1;ratioP1;P1;durP2;ratioP2;P2;SDS_P1;SDS_P2;PMS_P1;PMS_P2;Temp;Humidity;BMP_temperature;BMP_pressure;BME280_temperature;BME280_humidity;BME280_pressure;Samples;Min_cycle;Max_cycle;Signal;HPM_P1;HPM_P2
2022/09/22 00:01:08;;;;;;;0.50;0.50;;;;;;;9.93;78.43;96073.56;4373042;32;20196;-60
2022/09/22 00:03:36;;;;;;;4.30;0.80;;;;;;;9.91;78.31;96073.03;4374986;32;20185;-65
2022/09/22 00:06:12;;;;;;;0.83;0.83;;;;;;;9.95;77.88;96061.63;4357196;32;20287;-61
2022/09/22 00:08:51;;;;;;;0.93;0.93;;;;;;;9.60;79.53;96067.81;4414112;32;20184;-61
2022/09/22 00:11:23;;;;;;;1.03;0.97;;;;;;;9.35;80.58;96075.81;4380731;32;20184;-61
2022/09/22 00:13:58;;;;;;;1.97;0.97;;;;;;;9.49;80.51;96074.19;4389503;32;20308;-61
2022/09/22 00:16:28;;;;;;;1.17;1.07;;;;;;;9.48;80.91;96072.59;4382373;32;20343;-61
2022/09/22 00:18:55;;;;;;;1.40;1.30;;;;;;;9.44;80.80;96068.09;4343827;32;20381;-62
2022/09/22 00:21:26;;;;;;;0.70;0.70;;;;;;;9.31;81.41;96077.41;4369739;32;20272;-62
2022/09/22 00:23:54;;;;;;;0.87;0.80;;;;;;;9.22;81.58;96069.19;4362158;32;20335;-61
2022/09/22 00:26:30;;;;;;;1.37;1.17;;;;;;;9.23;81.65;96077.91;4379431;32;20322;-62
2022/09/22 00:28:57;;;;;;;0.60;0.60;;;;;;;9.12;82.06;96068.41;4393550;32;20365;-61
2022/09/22 00:31:24;;;;;;;1.20;0.93;;;;;;;8.96;82.51;96063.09;4398223;32;20280;-62
2022/09/22 00:33:53;;;;;;;1.17;1.17;;;;;;;9.04;82.52;96066.28;4391602;32;20288;-61
2022/09/22 00:36:34;;;;;;;0.70;0.70;;;;;;;9.08;81.93;96062.84;4416970;32;20295;-63
2022/09/22 00:39:02;;;;;;;0.50;0.50;;;;;;;8.92;82.53;96062.06;4375549;32;20288;-62
2022/09/22 00:41:39;;;;;;;1.43;1.10;;;;;;;8.99;82.08;96058.31;4388366;32;20477;-62
2022/09/22 00:44:42;;;;;;;0.87;0.70;;;;;;;8.78;83.08;96060.16;4340937;32;20323;-65
2022/09/22 00:47:36;;;;;;;0.60;0.60;;;;;;;9.11;81.40;96053.59;4349163;32;20343;-64
2022/09/22 00:50:24;;;;;;;1.00;1.00;;;;;;;8.91;82.11;96049.88;4399309;32;20280;-62
2022/09/22 00:53:19;;;;;;;0.80;0.80;;;;;;;8.91;82.02;96041.16;4385341;32;20345;-61
2022/09/22 00:56:27;;;;;;;0.87;0.87;;;;;;;8.91;82.59;96041.94;4383938;32;20294;-62
2022/09/22 00:59:18;;;;;;;1.40;0.90;;;;;;;8.91;82.31;96036.66;4319560;32;20275;-62
2022/09/22 01:01:45;;;;;;;2.00;0.63;;;;;;;8.95;82.60;96035.03;4397098;32;20268;-61
2022/09/22 01:04:13;;;;;;;0.40;0.40;;;;;;;9.11;81.54;96035.06;4345831;32;20288;-62
2022/09/22 01:06:43;;;;;;;0.70;0.70;;;;;;;8.83;82.74;96033.72;4384817;32;20323;-62
2022/09/22 01:09:11;;;;;;;1.07;0.53;;;;;;;9.08;81.75;96028.44;4391187;32;20280;-62
2022/09/22 01:11:38;;;;;;;1.80;1.70;;;;;;;8.99;82.00;96026.56;4385492;32;20281;-61
2022/09/22 01:14:48;;;;;;;1.20;1.10;;;;;;;9.04;81.85;96029.22;4399558;32;20278;-62
2022/09/22 01:17:49;;;;;;;0.53;0.53;;;;;;;8.96;82.33;96019.97;4386137;32;20363;-62
2022/09/22 01:20:42;;;;;;;0.37;0.37;;;;;;;9.03;81.89;96009.91;4378783;32;20288;-62
2022/09/22 01:23:51;;;;;;;0.90;0.90;;;;;;;8.90;82.62;96011.25;4338565;32;20289;-63
2022/09/22 01:26:55;;;;;;;0.90;0.90;;;;;;;8.99;82.62;96014.13;4339989;32;20290;-62
2022/09/22 01:29:49;;;;;;;0.37;0.37;;;;;;;8.84;83.19;96007.00;4366529;32;20311;-61
2022/09/22 01:32:28;;;;;;;0.90;0.43;;;;;;;9.00;82.67;95999.84;4366303;32;20283;-62
2022/09/22 01:35:22;;;;;;;1.67;1.57;;;;;;;8.93;82.24;95999.34;4358880;32;20298;-61
2022/09/22 01:38:11;;;;;;;1.03;1.03;;;;;;;8.84;83.39;95996.44;4387453;32;20359;-61
2022/09/22 01:40:56;;;;;;;1.90;1.77;;;;;;;9.05;82.14;95996.41;4383099;32;20276;-62
2022/09/22 01:43:30;;;;;;;0.40;0.40;;;;;;;8.97;82.39;96000.37;4353363;32;20275;-61
2022/09/22 01:46:02;;;;;;;1.00;0.73;;;;;;;8.94;81.97;95991.13;4386053;32;20267;-62
2022/09/22 01:48:55;;;;;;;0.73;0.73;;;;;;;8.90;82.29;95991.94;4376513;32;20280;-62
2022/09/22 01:51:28;;;;;;;0.80;0.63;;;;;;;8.94;81.96;95991.13;4352669;32;20272;-62
2022/09/22 01:54:00;;;;;;;2.63;1.40;;;;;;;8.82;82.26;95990.59;4351875;32;20293;-61
2022/09/22 01:56:48;;;;;;;0.83;0.83;;;;;;;8.84;82.05;95995.62;4346638;32;20376;-61
2022/09/22 01:59:19;;;;;;;0.70;0.50;;;;;;;8.80;81.79;95998.00;4404699;32;20324;-62
2022/09/22 02:01:55;;;;;;;0.23;0.23;;;;;;;8.71;82.31;95996.97;4340378;32;20273;-62
2022/09/22 02:04:42;;;;;;;1.20;0.93;;;;;;;8.57;83.01;96001.97;4374097;32;20280;-62
2022/09/22 02:07:21;;;;;;;0.40;0.40;;;;;;;8.49;83.40;95999.84;4393736;32;20315;-62
2022/09/22 02:09:49;;;;;;;0.80;0.80;;;;;;;8.26;84.19;95998.47;4372111;32;20305;-62
2022/09/22 02:12:17;;;;;;;0.67;0.67;;;;;;;8.41;83.95;95992.44;4371614;32;20290;-62
2022/09/22 02:14:52;;;;;;;2.63;0.80;;;;;;;8.45;83.39;95998.00;4375540;32;20275;-62
2022/09/22 02:17:21;;;;;;;0.93;0.93;;;;;;;8.37;83.44;95995.84;4377161;32;20280;-62
2022/09/22 02:19:47;;;;;;;0.53;0.53;;;;;;;8.33;82.92;96000.88;4399229;32;20282;-62
2022/09/22 02:22:14;;;;;;;0.50;0.50;;;;;;;8.35;83.54;95998.75;4380048;32;20272;-62
2022/09/22 02:24:45;;;;;;;0.60;0.60;;;;;;;8.16;84.64;95995.78;4392143;32;20215;-61
2022/09/22 02:27:25;;;;;;;0.70;0.70;;;;;;;8.23;84.13;95995.53;4384834;32;20296;-62
2022/09/22 02:30:07;;;;;;;0.73;0.73;;;;;;;8.29;84.39;95994.50;4376341;32;20275;-61
2022/09/22 02:32:37;;;;;;;0.50;0.50;;;;;;;8.44;83.21;96001.69;4371099;32;20284;-61
2022/09/22 02:35:13;;;;;;;2.37;0.93;;;;;;;8.30;83.44;96005.88;4379133;32;20294;-61
2022/09/22 02:38:11;;;;;;;0.77;0.77;;;;;;;8.37;83.39;95994.00;4364097;32;20288;-62
2022/09/22 02:41:25;;;;;;;0.80;0.80;;;;;;;8.38;83.12;96003.53;4395870;32;20333;-62
2022/09/22 02:44:34;;;;;;;0.70;0.70;;;;;;;8.40;82.84;95997.97;4404664;32;20272;-62
2022/09/22 02:47:09;;;;;;;0.67;0.60;;;;;;;8.18;83.25;96009.53;4384251;32;20276;-62
2022/09/22 02:49:47;;;;;;;0.93;0.90;;;;;;;8.10;83.86;96007.41;4378460;32;20275;-62
2022/09/22 02:52:14;;;;;;;0.77;0.77;;;;;;;8.13;83.98;96009.50;4393460;32;20319;-62
2022/09/22 02:54:41;;;;;;;0.43;0.43;;;;;;;8.14;84.10;96005.81;4409690;32;20335;-62
2022/09/22 02:57:09;;;;;;;2.03;0.63;;;;;;;8.18;83.78;96006.09;4393933;32;20279;-65
2022/09/22 02:59:38;;;;;;;0.43;0.43;;;;;;;7.97;83.78;96013.19;4355796;32;20298;-61
2022/09/22 03:02:04;;;;;;;0.43;0.43;;;;;;;8.06;83.80;96014.28;4374169;32;20302;-62
2022/09/22 03:04:34;;;;;;;0.67;0.67;;;;;;;8.08;83.71;96012.16;4390642;32;20284;-61
2022/09/22 03:07:05;;;;;;;0.47;0.47;;;;;;;8.14;82.93;96008.47;4366848;32;20281;-61
2022/09/22 03:09:31;;;;;;;0.83;0.83;;;;;;;8.19;83.00;96008.47;4399741;32;20292;-61
2022/09/22 03:11:58;;;;;;;1.10;1.10;;;;;;;8.08;83.63;96009.53;4394514;32;20402;-62
2022/09/22 03:14:26;;;;;;;0.50;0.50;;;;;;;8.01;83.85;96006.31;4393959;32;20279;-61
2022/09/22 03:16:53;;;;;;;0.40;0.40;;;;;;;8.14;83.22;96005.03;4402834;32;20279;-62
2022/09/22 03:19:19;;;;;;;0.40;0.40;;;;;;;8.05;82.77;95998.69;4384586;32;20274;-62
2022/09/22 03:21:46;;;;;;;0.80;0.80;;;;;;;7.99;82.98;96005.78;4377791;32;20284;-62
2022/09/22 03:24:14;;;;;;;0.90;0.90;;;;;;;7.93;83.22;96012.88;4366095;32;20333;-61
2022/09/22 03:26:39;;;;;;;1.13;1.13;;;;;;;8.03;82.55;96006.84;4369240;32;20340;-62
2022/09/22 03:29:13;;;;;;;0.50;0.50;;;;;;;7.93;82.74;95999.69;4390246;32;20271;-62
2022/09/22 03:31:41;;;;;;;0.50;0.50;;;;;;;7.73;83.75;96010.19;4351361;32;20185;-61
2022/09/22 03:34:06;;;;;;;1.20;0.83;;;;;;;7.73;84.09;96004.91;4394950;32;20283;-62
2022/09/22 03:36:34;;;;;;;0.57;0.57;;;;;;;7.61;83.89;96008.81;4396547;32;20271;-62
2022/09/22 03:39:03;;;;;;;0.70;0.70;;;;;;;7.86;82.69;96015.00;4387970;32;20195;-62
2022/09/22 03:41:30;;;;;;;0.77;0.77;;;;;;;7.67;83.59;96007.78;4373715;32;21783;-62
2022/09/22 03:43:57;;;;;;;0.47;0.47;;;;;;;7.57;83.97;96006.69;4362907;32;20378;-61
2022/09/22 03:46:25;;;;;;;0.50;0.50;;;;;;;7.47;84.49;96006.66;4349239;32;20354;-61
2022/09/22 03:48:53;;;;;;;0.50;0.50;;;;;;;7.58;84.08;96000.34;4391271;32;20311;-61
2022/09/22 03:51:19;;;;;;;0.30;0.30;;;;;;;7.57;84.23;95998.75;4376502;32;20284;-61
2022/09/22 03:53:47;;;;;;;0.90;0.90;;;;;;;7.49;84.27;95993.16;4367077;32;20271;-61
2022/09/22 03:56:16;;;;;;;0.60;0.60;;;;;;;7.43;84.80;96002.13;4383418;32;20275;-61
2022/09/22 03:58:43;;;;;;;0.93;0.73;;;;;;;7.49;84.50;96003.72;4393814;32;20280;-61
2022/09/22 04:01:11;;;;;;;0.80;0.80;;;;;;;7.39;84.28;96001.84;4393950;32;20271;-62
2022/09/22 04:03:38;;;;;;;0.47;0.47;;;;;;;7.61;83.78;95998.25;4389598;32;20276;-61
2022/09/22 04:06:07;;;;;;;0.73;0.73;;;;;;;7.58;83.38;95992.44;4397348;32;20276;-61
2022/09/22 04:08:34;;;;;;;1.20;1.10;;;;;;;7.40;83.88;96002.62;4385878;32;20335;-62
2022/09/22 04:11:03;;;;;;;0.40;0.40;;;;;;;7.40;83.89;96002.62;4365444;32;20350;-62
2022/09/22 04:13:34;;;;;;;0.80;0.80;;;;;;;7.10;85.08;96004.03;4387666;32;20351;-61
2022/09/22 04:16:04;;;;;;;0.87;0.87;;;;;;;7.29;84.75;96001.75;4352238;32;20276;-62
2022/09/22 04:18:30;;;;;;;0.53;0.53;;;;;;;7.11;84.86;95996.91;4390487;32;20362;-61
2022/09/22 04:20:57;;;;;;;0.63;0.63;;;;;;;7.34;83.90;95996.53;4346133;32;20339;-61
2022/09/22 04:23:25;;;;;;;0.73;0.73;;;;;;;7.26;83.83;95999.66;4376128;32;20271;-61
2022/09/22 04:25:56;;;;;;;0.83;0.83;;;;;;;7.32;83.92;95998.63;4379199;32;20299;-62
2022/09/22 04:28:23;;;;;;;0.40;0.40;;;;;;;7.33;83.71;95994.94;4398109;32;20294;-61
2022/09/22 04:30:49;;;;;;;1.57;0.97;;;;;;;7.21;84.01;95995.12;4400556;32;20279;-61
2022/09/22 04:33:19;;;;;;;0.70;0.70;;;;;;;7.24;84.04;95994.63;4342646;32;20272;-61
2022/09/22 04:35:52;;;;;;;0.67;0.67;;;;;;;7.20;84.21;95998.03;4378555;32;20207;-61
2022/09/22 04:38:19;;;;;;;0.53;0.53;;;;;;;7.10;84.39;95997.94;4383361;32;20391;-61
2022/09/22 04:40:47;;;;;;;0.53;0.53;;;;;;;7.16;84.76;96002.22;4373601;32;20292;-61
2022/09/22 04:43:17;;;;;;;1.20;1.10;;;;;;;7.19;83.99;96002.50;4391777;32;20290;-61
2022/09/22 04:45:45;;;;;;;1.00;1.00;;;;;;;7.09;84.72;96001.63;4394732;32;20275;-61
2022/09/22 04:48:10;;;;;;;0.60;0.60;;;;;;;7.25;83.67;95998.06;4367642;32;20354;-62
2022/09/22 04:50:35;;;;;;;0.50;0.50;;;;;;;7.29;83.10;96004.41;4394271;32;20280;-61
2022/09/22 04:53:01;;;;;;;0.70;0.70;;;;;;;7.13;83.80;96000.88;4385906;32;20184;-61
2022/09/22 04:55:29;;;;;;;0.13;0.13;;;;;;;7.10;84.10;96003.22;4398178;32;20283;-61
2022/09/22 04:57:56;;;;;;;0.57;0.57;;;;;;;7.04;84.75;96010.34;4374701;32;20224;-61
2022/09/22 05:00:28;;;;;;;0.90;0.90;;;;;;;7.09;84.70;96014.84;4360334;32;20355;-61
2022/09/22 05:02:56;;;;;;;0.90;0.67;;;;;;;7.04;84.82;96017.47;4371628;32;20272;-61
2022/09/22 05:05:23;;;;;;;0.70;0.70;;;;;;;7.08;84.24;96019.31;4394031;32;20267;-61
2022/09/22 05:07:54;;;;;;;0.50;0.50;;;;;;;7.16;83.34;96028.59;4382454;32;20333;-61
2022/09/22 05:10:29;;;;;;;0.30;0.30;;;;;;;7.20;83.22;96027.84;4358387;32;20265;-61
2022/09/22 05:12:58;;;;;;;0.80;0.80;;;;;;;7.19;83.01;96034.19;4404239;32;20262;-61
2022/09/22 05:15:26;;;;;;;0.77;0.77;;;;;;;6.93;84.04;96034.22;4390620;32;20295;-61
2022/09/22 05:17:54;;;;;;;0.87;0.87;;;;;;;6.75;84.41;96033.56;4381045;32;20296;-61
2022/09/22 05:20:20;;;;;;;0.60;0.60;;;;;;;7.00;84.10;96034.81;4354053;32;20283;-61
2022/09/22 05:22:49;;;;;;;0.80;0.80;;;;;;;6.96;83.89;96034.53;4391420;32;20287;-61
2022/09/22 05:25:17;;;;;;;0.73;0.73;;;;;;;7.00;84.03;96037.47;4348455;32;20284;-61
2022/09/22 05:27:55;;;;;;;1.00;1.00;;;;;;;6.97;84.06;96037.97;4370348;32;20295;-61
2022/09/22 05:30:33;;;;;;;1.03;1.00;;;;;;;7.02;83.90;96032.72;4382750;32;20389;-61
2022/09/22 05:32:58;;;;;;;0.50;0.50;;;;;;;6.95;84.46;96037.41;4394197;32;20275;-61
2022/09/22 05:35:25;;;;;;;0.67;0.67;;;;;;;6.89;84.89;96032.09;4395385;32;20299;-61
2022/09/22 05:37:53;;;;;;;0.97;0.97;;;;;;;7.09;83.97;96030.66;4395644;32;20251;-61
2022/09/22 05:40:23;;;;;;;2.93;1.37;;;;;;;7.07;83.88;96044.09;4385685;32;20272;-61
2022/09/22 05:42:54;;;;;;;0.93;0.93;;;;;;;6.89;84.51;96040.00;4392837;32;20280;-61
2022/09/22 05:45:22;;;;;;;0.90;0.90;;;;;;;7.12;84.35;96040.72;4384180;32;20358;-61
2022/09/22 05:47:50;;;;;;;0.97;0.97;;;;;;;7.07;83.86;96046.75;4360447;32;20282;-61
2022/09/22 05:50:18;;;;;;;1.00;1.00;;;;;;;7.09;83.98;96047.28;4373084;32;20275;-61
2022/09/22 05:52:48;;;;;;;1.10;1.00;;;;;;;7.08;84.54;96050.16;4383608;32;20291;-61
2022/09/22 05:55:14;;;;;;;0.83;0.83;;;;;;;7.19;84.18;96051.84;4372209;32;20298;-62
2022/09/22 05:57:42;;;;;;;1.00;0.97;;;;;;;7.12;84.51;96056.53;4392967;32;20294;-61
2022/09/22 06:00:09;;;;;;;0.67;0.67;;;;;;;6.99;84.78;96047.22;4383549;32;20302;-61
2022/09/22 06:02:37;;;;;;;0.90;0.90;;;;;;;6.97;85.06;96051.94;4383574;32;20292;-61
2022/09/22 06:05:06;;;;;;;0.50;0.50;;;;;;;7.10;85.06;96051.50;4371379;32;20317;-61
2022/09/22 06:07:34;;;;;;;1.90;1.27;;;;;;;7.06;85.06;96049.66;4401916;32;20287;-61
2022/09/22 06:10:00;;;;;;;0.77;0.67;;;;;;;6.86;85.68;96039.72;4388626;32;20458;-50
2022/09/22 06:12:28;;;;;;;1.77;1.67;;;;;;;9.41;100.00;96037.66;4393012;32;20322;-47
2022/09/22 06:14:55;;;;;;;5.00;2.77;;;;;;;11.02;100.00;96037.94;4397394;32;20273;-51
2022/09/22 06:17:22;;;;;;;3.33;1.57;;;;;;;11.44;100.00;96030.41;4395701;32;20280;-51
2022/09/22 06:19:49;;;;;;;1.13;1.13;;;;;;;11.94;85.00;96031.78;4371166;32;20236;-49
2022/09/22 06:22:17;;;;;;;4.97;1.40;;;;;;;12.73;78.43;96032.84;4384785;32;20187;-50
2022/09/22 06:24:47;;;;;;;3.87;1.70;;;;;;;13.10;74.38;96034.66;4379634;32;20192;-51
2022/09/22 06:27:16;;;;;;;1.50;1.40;;;;;;;13.54;75.80;96034.22;4399535;32;20196;-50
2022/09/22 06:29:42;;;;;;;1.83;1.37;;;;;;;13.66;70.19;96037.22;4371322;32;20219;-48
2022/09/22 06:32:09;;;;;;;28.73;1.10;;;;;;;13.92;67.73;96045.53;4353822;32;20206;-49
2022/09/22 06:34:36;;;;;;;1.30;1.23;;;;;;;13.81;66.08;96044.13;4371437;32;20225;-52
2022/09/22 06:37:18;;;;;;;1.30;1.23;;;;;;;13.86;65.41;96037.91;4371460;32;20257;-48
2022/09/22 06:39:48;;;;;;;0.67;0.67;;;;;;;13.74;65.66;96041.06;4384216;32;20219;-49
2022/09/22 06:42:15;;;;;;;1.20;1.10;;;;;;;13.58;64.37;96037.09;4399909;32;20191;-47
2022/09/22 06:44:43;;;;;;;0.93;0.90;;;;;;;13.62;64.94;96038.88;4380315;32;20184;-48
2022/09/22 06:47:11;;;;;;;0.80;0.70;;;;;;;13.80;65.13;96034.53;4403677;32;20247;-49
2022/09/22 06:49:37;;;;;;;2.13;1.93;;;;;;;13.79;64.91;96034.84;4393850;32;20185;-51
2022/09/22 06:52:04;;;;;;;1.47;1.37;;;;;;;13.57;72.30;96032.84;4393763;32;20191;-46
2022/09/22 06:54:33;;;;;;;1.20;1.20;;;;;;;13.27;73.21;96034.19;4376056;32;20246;-51
2022/09/22 06:57:00;;;;;;;1.40;1.40;;;;;;;13.44;78.40;96023.75;4357902;32;20181;-52
2022/09/22 06:59:27;;;;;;;2.27;1.23;;;;;;;13.01;74.69;96015.91;4375970;32;20258;-61
2022/09/22 07:01:56;;;;;;;1.40;1.40;;;;;;;12.04;67.78;96024.47;4405641;32;20202;-60
2022/09/22 07:04:23;;;;;;;1.20;1.03;;;;;;;11.27;69.40;96026.31;4396042;32;20192;-63
2022/09/22 07:06:50;;;;;;;0.60;0.60;;;;;;;10.31;72.94;96029.69;4401161;32;20200;-60
2022/09/22 07:09:16;;;;;;;0.70;0.70;;;;;;;10.13;74.60;96027.63;4394347;32;20220;-61
2022/09/22 07:11:43;;;;;;;1.00;0.90;;;;;;;10.18;75.41;96024.97;4407735;32;20191;-61
2022/09/22 07:14:11;;;;;;;0.93;0.93;;;;;;;9.61;76.99;96028.88;4395075;32;20184;-60
2022/09/22 07:16:39;;;;;;;0.90;0.90;;;;;;;9.46;77.97;96021.75;4398097;32;20210;-61
2022/09/22 07:19:06;;;;;;;0.50;0.50;;;;;;;9.06;79.91;96019.16;4394106;32;20206;-61
2022/09/22 07:21:36;;;;;;;1.17;1.17;;;;;;;9.16;80.17;96019.16;4401452;32;20195;-61
2022/09/22 07:24:07;;;;;;;0.60;0.60;;;;;;;9.14;80.94;96016.78;4390476;32;20206;-58
2022/09/22 07:26:37;;;;;;;0.73;0.63;;;;;;;9.21;80.81;96027.09;4381791;32;20188;-59
2022/09/22 07:29:10;;;;;;;0.60;0.60;;;;;;;9.19;81.03;96019.41;4381730;32;20184;-60
2022/09/22 07:31:40;;;;;;;0.97;0.97;;;;;;;9.03;81.66;96012.56;4412139;32;20206;-60
2022/09/22 07:34:07;;;;;;;1.03;1.03;;;;;;;9.14;82.34;96013.34;4402564;32;20188;-59
2022/09/22 07:36:35;;;;;;;1.53;0.90;;;;;;;9.22;81.76;96024.19;4378078;32;20338;-60
2022/09/22 07:39:09;;;;;;;0.57;0.57;;;;;;;9.32;81.25;96012.00;4355834;32;20413;-59
2022/09/22 07:41:41;;;;;;;0.70;0.70;;;;;;;9.53;80.78;96024.94;4393934;32;20300;-59
2022/09/22 07:46:55;;;;;;;0.53;0.50;;;;;;;9.57;81.38;96015.34;4355534;32;20357;-62
2022/09/22 07:49:22;;;;;;;1.07;1.07;;;;;;;9.72;80.24;96011.88;4387286;32;20272;-60
2022/09/22 07:51:56;;;;;;;0.57;0.57;;;;;;;9.91;79.95;96012.09;4384415;32;20176;-60
2022/09/22 07:54:35;;;;;;;0.67;0.67;;;;;;;10.01;78.99;96017.31;4371218;32;20283;-60
2022/09/22 07:57:08;;;;;;;0.83;0.83;;;;;;;10.21;79.10;96009.31;4366527;32;20189;-61
2022/09/22 07:59:34;;;;;;;0.60;0.60;;;;;;;10.38;78.89;96013.47;4368472;32;20210;-59
2022/09/22 08:02:01;;;;;;;0.70;0.70;;;;;;;10.58;78.13;96016.00;4352337;32;20205;-60
2022/09/22 08:04:29;;;;;;;0.53;0.53;;;;;;;10.58;76.73;96013.34;4404428;32;20184;-61
2022/09/22 08:06:56;;;;;;;0.50;0.50;;;;;;;10.73;74.67;96020.41;4365302;32;20253;-60
2022/09/22 08:09:24;;;;;;;0.30;0.30;;;;;;;10.83;73.58;96013.13;4381819;32;20219;-61
2022/09/22 08:11:51;;;;;;;0.53;0.53;;;;;;;11.02;72.11;96008.75;4330313;32;20201;-61
2022/09/22 08:14:22;;;;;;;0.30;0.30;;;;;;;11.16;71.54;96016.06;4364022;32;20230;-60
2022/09/22 08:16:50;;;;;;;0.53;0.53;;;;;;;11.22;72.28;96017.63;4376888;32;20197;-62
2022/09/22 08:19:17;;;;;;;2.63;0.60;;;;;;;11.27;72.45;96020.22;4399508;32;20191;-61
2022/09/22 08:21:46;;;;;;;0.30;0.30;;;;;;;11.41;71.08;96015.84;4392917;32;20183;-63
2022/09/22 08:24:15;;;;;;;1.20;0.63;;;;;;;11.53;69.76;96013.59;4362903;32;20176;-63
2022/09/22 08:26:46;;;;;;;0.37;0.37;;;;;;;11.51;69.37;96018.38;4342678;32;20213;-62
2022/09/22 08:29:14;;;;;;;0.63;0.63;;;;;;;11.50;69.56;96016.00;4401798;32;20224;-60
2022/09/22 08:31:41;;;;;;;0.90;0.90;;;;;;;11.45;71.94;96016.84;4385236;32;20184;-61
2022/09/22 08:34:07;;;;;;;0.40;0.40;;;;;;;11.53;70.47;96016.25;4367516;32;20208;-62
2022/09/22 08:36:36;;;;;;;0.90;0.67;;;;;;;11.71;70.44;96015.50;4388729;32;20207;-61
2022/09/22 08:39:03;;;;;;;0.30;0.30;;;;;;;11.80;70.30;96014.94;4385713;32;20187;-62
2022/09/22 08:42:19;;;;;;;0.67;0.67;;;;;;;12.02;69.57;96016.00;4393047;32;20188;-58
2022/09/22 08:45:09;;;;;;;0.53;0.53;;;;;;;12.06;68.93;96010.88;4388111;32;20245;-59
2022/09/22 08:53:56;;;;;;;0.70;0.70;;;;;;;12.19;67.72;96006.72;4380199;32;20274;-60
2022/09/22 08:56:43;;;;;;;7.73;1.17;;;;;;;12.21;67.71;96013.34;4396935;32;20184;-61
2022/09/22 08:59:41;;;;;;;0.87;0.37;;;;;;;12.20;67.74;96008.31;4377889;32;20216;-61
2022/09/22 09:02:48;;;;;;;0.77;0.77;;;;;;;12.29;69.07;96004.72;4373220;32;20207;-62
2022/09/22 09:06:00;;;;;;;0.57;0.57;;;;;;;12.38;68.17;95997.69;4382950;32;20198;-62
2022/09/22 09:08:51;;;;;;;1.90;0.57;;;;;;;12.48;68.21;96002.06;4313392;32;20216;-63
2022/09/22 09:11:39;;;;;;;0.20;0.20;;;;;;;12.48;67.59;96001.28;4408794;32;20237;-61
2022/09/22 09:14:44;;;;;;;0.40;0.40;;;;;;;12.50;67.51;96004.44;4389047;32;20172;-60
2022/09/22 09:17:27;;;;;;;0.10;0.10;;;;;;;12.59;67.49;96008.84;4365475;32;20250;-68
2022/09/22 09:20:30;;;;;;;0.40;0.40;;;;;;;12.59;66.42;96010.69;4385453;32;20188;-60
2022/09/22 09:23:28;;;;;;;0.30;0.30;;;;;;;12.66;65.73;96003.16;4383638;32;20289;-60
2022/09/22 09:25:55;;;;;;;0.63;0.43;;;;;;;12.79;65.49;95997.09;4362643;32;20241;-61
2022/09/22 09:28:41;;;;;;;1.70;0.77;;;;;;;12.71;65.89;95995.88;4360084;32;20235;-61
2022/09/22 09:31:44;;;;;;;0.57;0.57;;;;;;;12.99;64.21;96006.63;4380767;32;20196;-65
2022/09/22 09:34:16;;;;;;;0.23;0.23;;;;;;;12.83;63.19;95995.44;4374423;32;20211;-60
2022/09/22 09:36:48;;;;;;;0.00;0.00;;;;;;;12.88;63.80;96000.69;4394191;32;20233;-60
2022/09/22 09:39:29;;;;;;;0.30;0.30;;;;;;;12.95;63.91;96001.09;4356694;32;20298;-60
2022/09/22 09:41:57;;;;;;;0.63;0.63;;;;;;;12.97;64.49;95993.59;4383503;32;20192;-60
2022/09/22 09:44:38;;;;;;;0.27;0.27;;;;;;;13.07;64.24;95990.78;4370068;32;20207;-59
2022/09/22 09:47:42;;;;;;;0.30;0.30;;;;;;;13.01;64.11;95999.94;4371602;32;20187;-60
2022/09/22 09:50:13;;;;;;;0.37;0.33;;;;;;;13.17;66.94;95997.81;4342868;32;20196;-65
2022/09/22 09:52:41;;;;;;;0.77;0.77;;;;;;;13.21;65.42;95987.38;4370654;32;20184;-63
2022/09/22 09:55:26;;;;;;;0.20;0.20;;;;;;;13.22;65.00;95988.97;4388555;32;20197;-61
2022/09/22 10:00:29;;;;;;;0.40;0.40;;;;;;;13.33;66.05;95982.34;4370779;32;20187;-60
2022/09/22 10:00:59;;;;;;;1.90;1.63;;;;;;;13.32;64.39;95986.09;4389337;32;20180;-59
2022/09/22 10:03:46;;;;;;;0.50;0.50;;;;;;;13.32;63.22;95983.44;4338391;32;20206;-59
2022/09/22 10:06:24;;;;;;;0.50;0.50;;;;;;;13.38;63.45;95976.94;4383014;32;20188;-59
2022/09/22 10:08:54;;;;;;;1.13;1.00;;;;;;;13.43;63.85;95976.84;4379856;32;20195;-61
2022/09/22 10:11:32;;;;;;;0.40;0.40;;;;;;;13.54;63.75;95975.56;4386625;32;20195;-60
2022/09/22 10:13:58;;;;;;;0.10;0.10;;;;;;;13.52;61.34;95975.06;4392166;32;20074;-59
2022/09/22 10:16:29;;;;;;;0.07;0.07;;;;;;;13.44;60.02;95978.44;4384613;32;20221;-59
2022/09/22 10:19:22;;;;;;;0.13;0.13;;;;;;;13.45;61.31;95972.03;4358889;32;20218;-59
2022/09/22 10:21:49;;;;;;;0.40;0.40;;;;;;;13.48;62.67;95966.09;4384769;32;20234;-59
2022/09/22 10:24:30;;;;;;;0.90;0.80;;;;;;;13.58;63.16;95957.91;4396470;32;20237;-60
2022/09/22 10:26:57;;;;;;;0.67;0.67;;;;;;;13.58;61.83;95971.22;4372326;32;20312;-59
2022/09/22 10:29:26;;;;;;;0.20;0.20;;;;;;;13.65;62.66;95963.63;4391388;32;20188;-59
2022/09/22 10:32:10;;;;;;;0.10;0.10;;;;;;;13.70;59.01;95968.09;4350272;32;20243;-59
2022/09/22 10:34:44;;;;;;;4.43;0.40;;;;;;;13.75;56.30;95965.28;4387233;32;20184;-60
2022/09/22 10:37:14;;;;;;;0.23;0.23;;;;;;;13.76;56.67;95961.53;4395660;32;20200;-60
2022/09/22 10:39:49;;;;;;;0.83;0.83;;;;;;;13.88;54.24;95963.72;4378311;32;20179;-60
2022/09/22 10:42:44;;;;;;;4.23;2.10;;;;;;;13.84;55.01;95957.41;4391026;32;20187;-59
2022/09/22 10:45:18;;;;;;;0.73;0.73;;;;;;;13.92;55.20;95957.50;4387952;32;20181;-59
2022/09/22 10:48:12;;;;;;;0.50;0.10;;;;;;;13.94;55.61;95954.50;4392365;32;20215;-59
2022/09/22 10:51:04;;;;;;;0.67;0.67;;;;;;;13.98;56.41;95955.50;4394567;32;20187;-65
2022/09/22 10:54:25;;;;;;;0.20;0.20;;;;;;;14.05;57.20;95948.69;4387204;32;20284;-58
2022/09/22 10:56:56;;;;;;;4.50;2.10;;;;;;;14.15;53.42;95957.53;4318211;32;20261;-59
2022/09/22 11:00:01;;;;;;;0.30;0.30;;;;;;;14.24;54.22;95961.87;4323732;32;20354;-59
2022/09/22 11:02:46;;;;;;;0.30;0.30;;;;;;;14.28;53.04;95957.53;4305042;32;20291;-59
2022/09/22 11:12:17;;;;;;;1.77;1.67;;;;;;;14.18;55.81;95952.41;4363967;32;20203;-58
2022/09/22 11:14:46;;;;;;;0.37;0.37;;;;;;;14.47;60.94;95948.59;4388618;32;20208;-51
2022/09/22 11:17:36;;;;;;;4.37;4.03;;;;;;;15.14;52.10;95946.72;4401913;32;20241;-50
2022/09/22 11:20:40;;;;;;;7.00;4.83;;;;;;;16.32;60.54;95943.16;4394627;32;20192;-55
2022/09/22 11:23:50;;;;;;;3.27;3.07;;;;;;;16.73;56.29;95948.06;4368242;32;20291;-53
2022/09/22 11:26:37;;;;;;;0.33;0.33;;;;;;;16.07;53.83;95933.19;4394721;32;20196;-49
2022/09/22 11:29:11;;;;;;;0.40;0.40;;;;;;;16.10;51.60;95937.94;4353383;32;20215;-54
2022/09/22 11:32:01;;;;;;;0.43;0.43;;;;;;;16.05;48.96;95938.06;4361108;32;20234;-52
2022/09/22 11:35:00;;;;;;;0.10;0.10;;;;;;;16.23;53.38;95928.97;4339511;32;20283;-59
2022/09/22 11:37:54;;;;;;;0.20;0.20;;;;;;;16.07;48.61;95930.53;4337386;32;20246;-58
2022/09/22 11:41:15;;;;;;;0.17;0.17;;;;;;;15.77;49.46;95940.22;4353547;32;20188;-61
2022/09/22 11:44:06;;;;;;;0.03;0.03;;;;;;;15.59;50.75;95928.66;4369065;32;20207;-59
2022/09/22 11:47:12;;;;;;;0.20;0.20;;;;;;;15.36;50.16;95932.50;4357826;32;20189;-62
2022/09/22 11:50:15;;;;;;;0.30;0.30;;;;;;;15.19;50.06;95919.03;4332255;32;20175;-61
2022/09/22 11:53:08;;;;;;;0.30;0.30;;;;;;;15.10;50.97;95921.69;4339100;32;20191;-61
2022/09/22 11:55:51;;;;;;;0.50;0.40;;;;;;;15.07;50.93;95916.94;4372331;32;20200;-59
2022/09/22 11:58:38;;;;;;;0.53;0.30;;;;;;;14.97;51.58;95915.31;4306975;32;20193;-59
2022/09/22 12:01:13;;;;;;;1.03;0.57;;;;;;;14.99;51.96;95907.78;4347375;32;20206;-59
2022/09/22 12:04:14;;;;;;;0.40;0.40;;;;;;;14.93;51.87;95908.22;4362573;32;20207;-60
2022/09/22 12:06:48;;;;;;;0.20;0.20;;;;;;;14.85;53.41;95914.31;4359416;32;20246;-62
2022/09/22 12:09:59;;;;;;;0.10;0.10;;;;;;;14.88;52.54;95906.47;4342599;32;20185;-59
2022/09/22 12:12:35;;;;;;;1.80;1.07;;;;;;;14.88;52.83;95905.69;4354905;32;20239;-60
2022/09/22 12:15:17;;;;;;;0.43;0.43;;;;;;;14.84;53.19;95900.16;4361326;32;20188;-59
2022/09/22 12:17:54;;;;;;;0.93;0.20;;;;;;;14.89;52.81;95902.72;4361251;32;20225;-60
2022/09/22 12:20:36;;;;;;;0.00;0.00;;;;;;;14.86;52.06;95905.19;4371650;32;20219;-59
2022/09/22 12:23:18;;;;;;;0.50;0.50;;;;;;;14.93;52.06;95903.69;4333231;32;20220;-61
2022/09/22 12:25:52;;;;;;;0.20;0.20;;;;;;;14.89;53.58;95885.87;4345035;32;20260;-60
2022/09/22 12:28:29;;;;;;;0.53;0.40;;;;;;;14.95;52.97;95884.66;4359915;32;20244;-60
2022/09/22 12:31:19;;;;;;;0.27;0.27;;;;;;;15.00;53.20;95896.00;4387505;32;20202;-61
2022/09/22 12:33:48;;;;;;;0.20;0.20;;;;;;;15.01;52.10;95889.56;4380194;32;20203;-61
2022/09/22 12:36:16;;;;;;;1.83;0.67;;;;;;;14.95;52.51;95890.81;4414715;32;20191;-62